createdAt,value
2022-10-02T00:00:07.382Z,9.55
2022-10-02T00:03:29.296Z,17.83
2022-10-02T00:06:39.278Z,18.52
2022-10-02T00:09:56.977Z,21.33
2022-10-02T00:13:03.706Z,12.95
2022-10-02T00:16:05.744Z,18.67
2022-10-02T00:19:04.715Z,12.98
2022-10-02T00:22:20.025Z,20.10
2022-10-02T00:25:35.921Z,13.32
2022-10-02T00:28:46.830Z,9.13
2022-10-02T00:32:01.512Z,11.65
2022-10-02T00:35:21.788Z,19.58
2022-10-02T00:38:45.379Z,16.30
2022-10-02T00:42:10.860Z,19.55
2022-10-02T00:45:33.171Z,17.55
2022-10-02T00:48:51.245Z,16.23
2022-10-02T00:52:15.069Z,16.88
2022-10-02T00:55:31.269Z,19.48
2022-10-02T00:58:59.229Z,15.77
2022-10-02T01:02:05.151Z,17.15
2022-10-02T01:05:09.022Z,13.77
2022-10-02T01:08:17.495Z,12.73
2022-10-02T01:11:16.641Z,13.43
2022-10-02T01:14:15.664Z,15.55
2022-10-02T01:17:39.194Z,16.02
2022-10-02T01:20:42.270Z,14.85
2022-10-02T01:24:09.138Z,14.00
2022-10-02T01:27:07.857Z,12.48
2022-10-02T01:30:12.203Z,9.50
2022-10-02T01:33:11.654Z,14.48
2022-10-02T01:36:12.329Z,14.45
2022-10-02T01:39:11.885Z,9.13
2022-10-02T01:42:10.822Z,23.42
2022-10-02T01:45:10.739Z,18.42
2022-10-02T01:48:21.755Z,20.20
2022-10-02T01:51:59.883Z,23.15
2022-10-02T01:55:04.023Z,21.88
2022-10-02T01:58:26.205Z,17.27
2022-10-02T02:01:51.282Z,15.52
2022-10-02T02:05:03.894Z,19.35
2022-10-02T02:08:33.263Z,12.70
2022-10-02T02:11:31.970Z,18.40
2022-10-02T02:14:35.674Z,22.42
2022-10-02T02:17:50.307Z,13.93
2022-10-02T02:20:52.795Z,17.48
2022-10-02T02:23:53.934Z,19.77
2022-10-02T02:26:57.276Z,25.40
2022-10-02T02:30:02.404Z,26.23
2022-10-02T02:33:08.698Z,19.58
2022-10-02T02:36:13.943Z,28.92
2022-10-02T02:39:19.904Z,26.67
2022-10-02T02:42:25.808Z,32.05
2022-10-02T02:45:29.870Z,28.35
2022-10-02T02:48:33.534Z,16.42
2022-10-02T02:51:38.502Z,14.88
2022-10-02T02:54:44.701Z,23.27
2022-10-02T02:57:54.009Z,23.73
2022-10-02T03:00:53.465Z,22.35
2022-10-02T03:03:52.241Z,21.92
2022-10-02T03:06:56.348Z,12.73
2022-10-02T03:10:09.360Z,21.58
2022-10-02T03:13:29.422Z,28.52
2022-10-02T03:16:50.936Z,25.73
2022-10-02T03:20:07.804Z,19.70
2022-10-02T03:23:24.015Z,21.65
2022-10-02T03:26:32.845Z,21.05
2022-10-02T03:29:38.920Z,26.23
2022-10-02T03:32:40.944Z,24.88
2022-10-02T03:35:40.956Z,22.77
2022-10-02T03:38:39.851Z,26.42
2022-10-02T03:41:39.058Z,20.95
2022-10-02T03:44:37.324Z,26.80
2022-10-02T03:47:35.965Z,25.23
2022-10-02T03:50:36.560Z,25.85
2022-10-02T03:53:35.627Z,17.13
2022-10-02T03:56:42.582Z,19.00
2022-10-02T03:59:50.622Z,30.33
2022-10-02T04:02:55.987Z,22.73
2022-10-02T04:06:04.072Z,34.13
2022-10-02T04:09:11.125Z,24.05
2022-10-02T04:12:17.567Z,26.23
2022-10-02T04:15:37.256Z,21.45
2022-10-02T04:18:59.128Z,20.98
2022-10-02T04:22:29.714Z,21.20
2022-10-02T04:25:34.600Z,19.70
2022-10-02T04:28:40.854Z,21.73
2022-10-02T04:31:39.568Z,23.35
2022-10-02T04:34:38.159Z,33.40
2022-10-02T04:38:04.756Z,30.48
2022-10-02T04:41:38.264Z,32.83
2022-10-02T04:45:04.106Z,24.63
2022-10-02T04:48:32.996Z,27.05
2022-10-02T04:52:07.270Z,23.65
2022-10-02T04:55:27.746Z,31.98
2022-10-02T04:59:01.557Z,34.70
2022-10-02T05:02:10.392Z,30.58
2022-10-02T05:05:37.382Z,20.80
2022-10-02T05:08:57.965Z,26.98
2022-10-02T05:12:20.635Z,31.42
2022-10-02T05:15:40.567Z,31.60
2022-10-02T05:19:09.861Z,25.42
2022-10-02T05:22:39.417Z,25.27
2022-10-02T05:26:03.420Z,25.08
2022-10-02T05:29:27.772Z,30.10
2022-10-02T05:32:55.303Z,23.70
2022-10-02T05:36:24.808Z,24.85
2022-10-02T05:39:33.856Z,31.27
2022-10-02T05:42:43.024Z,30.88
2022-10-02T05:45:51.606Z,27.65
2022-10-02T05:49:01.251Z,26.83
2022-10-02T05:52:16.024Z,30.33
2022-10-02T05:55:21.711Z,33.08
2022-10-02T05:58:32.148Z,23.38
2022-10-02T06:01:40.900Z,27.48
2022-10-02T06:04:48.871Z,35.08
2022-10-02T06:07:52.520Z,42.63
2022-10-02T06:10:55.030Z,33.05
2022-10-02T06:14:01.317Z,35.17
2022-10-02T06:17:20.696Z,20.80
2022-10-02T06:20:33.411Z,44.78
2022-10-02T06:23:39.058Z,39.90
2022-10-02T06:26:58.011Z,38.42
2022-10-02T06:30:04.977Z,33.08
2022-10-02T06:33:15.891Z,31.02
2022-10-02T06:36:41.792Z,40.83
2022-10-02T06:40:04.188Z,36.03
2022-10-02T06:43:27.604Z,39.45
2022-10-02T06:46:51.233Z,32.75
2022-10-02T06:50:28.457Z,30.35
2022-10-02T06:53:48.482Z,34.42
2022-10-02T06:57:11.917Z,35.22
2022-10-02T07:00:13.099Z,41.53
2022-10-02T07:03:35.310Z,25.80
2022-10-02T07:06:45.552Z,52.88
2022-10-02T07:10:14.844Z,47.83
2022-10-02T07:13:43.626Z,50.95
2022-10-02T07:17:05.760Z,38.92
2022-10-02T07:20:22.623Z,52.30
2022-10-02T07:23:38.162Z,29.58
2022-10-02T07:26:47.541Z,30.35
2022-10-02T07:30:04.221Z,52.47
2022-10-02T07:33:20.931Z,41.50
2022-10-02T07:36:39.627Z,50.37
2022-10-02T07:39:56.230Z,55.50
2022-10-02T07:43:23.411Z,42.65
2022-10-02T07:46:36.155Z,48.33
2022-10-02T07:49:52.304Z,36.67
2022-10-02T07:53:06.925Z,46.65
2022-10-02T07:56:10.203Z,46.55
2022-10-02T07:59:16.655Z,37.35
2022-10-02T08:02:27.385Z,37.40
2022-10-02T08:05:33.353Z,38.15
2022-10-02T08:08:52.115Z,37.70
2022-10-02T08:11:59.696Z,35.75
2022-10-02T08:15:00.590Z,31.00
2022-10-02T08:18:23.204Z,47.30
2022-10-02T08:21:26.552Z,44.28
2022-10-02T08:24:31.414Z,33.85
2022-10-02T08:27:48.402Z,36.50
2022-10-02T08:30:47.323Z,43.38
2022-10-02T08:33:46.064Z,37.42
2022-10-02T08:37:19.332Z,52.13
2022-10-02T08:40:42.913Z,44.63
2022-10-02T08:44:06.894Z,46.67
2022-10-02T08:47:41.017Z,33.00
2022-10-02T08:51:00.679Z,44.40
2022-10-02T08:54:35.533Z,36.55
2022-10-02T08:58:06.818Z,41.28
2022-10-02T09:01:29.297Z,31.25
2022-10-02T09:05:02.253Z,25.25
2022-10-02T09:08:47.817Z,45.53
2022-10-02T09:12:30.621Z,42.17
2022-10-02T09:16:04.528Z,29.83
2022-10-02T09:19:30.435Z,36.13
2022-10-02T09:23:03.581Z,31.23
2022-10-02T09:26:29.652Z,27.05
2022-10-02T09:30:00.548Z,32.42
2022-10-02T09:33:31.153Z,30.10
2022-10-02T09:37:05.285Z,22.15
2022-10-02T09:40:35.488Z,28.98
2022-10-02T09:44:11.425Z,32.22
2022-10-02T09:47:38.490Z,37.17
2022-10-02T09:51:09.438Z,27.23
2022-10-02T09:54:44.000Z,23.15
2022-10-02T09:58:09.968Z,21.85
2022-10-02T10:01:28.841Z,28.75
2022-10-02T10:05:06.803Z,35.30
2022-10-02T10:08:30.358Z,29.20
2022-10-02T10:11:57.273Z,48.53
2022-10-02T10:15:33.194Z,34.47
2022-10-02T10:18:55.552Z,25.35
2022-10-02T10:22:27.855Z,34.05
2022-10-02T10:25:44.848Z,23.58
2022-10-02T10:29:11.745Z,29.25
2022-10-02T10:32:49.991Z,27.00
2022-10-02T10:36:33.142Z,28.17
2022-10-02T10:40:04.337Z,26.15
2022-10-02T10:43:34.122Z,28.23
2022-10-02T10:46:45.124Z,22.73
2022-10-02T10:50:02.783Z,19.10
2022-10-02T10:53:24.805Z,26.10
2022-10-02T10:56:37.621Z,24.88
2022-10-02T10:59:57.462Z,21.63
2022-10-02T11:03:28.290Z,26.45
2022-10-02T11:07:16.005Z,34.42
2022-10-02T11:10:31.402Z,25.33
2022-10-02T11:14:06.040Z,27.20
2022-10-02T11:17:27.998Z,21.83
2022-10-02T11:20:59.245Z,21.85
2022-10-02T11:24:26.058Z,24.45
2022-10-02T11:27:47.146Z,25.02
2022-10-02T11:31:17.107Z,27.33
2022-10-02T11:34:45.333Z,19.50
2022-10-02T11:38:04.267Z,28.55
2022-10-02T11:41:26.820Z,23.08
2022-10-02T11:44:56.066Z,36.53
2022-10-02T11:48:24.859Z,32.20
2022-10-02T11:51:47.838Z,30.45
2022-10-02T11:55:08.255Z,36.45
2022-10-02T11:58:42.248Z,38.75
2022-10-02T12:02:16.211Z,30.70
2022-10-02T12:05:35.993Z,30.40
2022-10-02T12:08:57.989Z,37.05
2022-10-02T12:12:23.508Z,34.72
2022-10-02T12:15:46.025Z,48.78
2022-10-02T12:19:05.090Z,54.58
2022-10-02T12:22:40.927Z,27.58
2022-10-02T12:26:05.285Z,44.20
2022-10-02T12:29:28.574Z,53.95
2022-10-02T12:32:49.605Z,56.13
2022-10-02T12:36:10.503Z,62.80
2022-10-02T12:39:33.525Z,44.88
2022-10-02T12:43:00.660Z,40.58
2022-10-02T12:46:28.329Z,55.53
2022-10-02T12:49:41.264Z,61.30
2022-10-02T12:53:10.965Z,57.72
2022-10-02T12:56:46.841Z,54.33
2022-10-02T12:59:58.777Z,56.25
2022-10-02T13:03:21.769Z,61.53
2022-10-02T13:06:51.650Z,45.92
2022-10-02T13:10:16.627Z,50.13
2022-10-02T13:13:43.324Z,44.00
2022-10-02T13:17:11.226Z,52.90
2022-10-02T13:20:23.101Z,60.60
2022-10-02T13:23:32.421Z,54.03
2022-10-02T13:26:53.179Z,56.42
2022-10-02T13:30:12.016Z,60.70
2022-10-02T13:33:41.946Z,53.35
2022-10-02T13:37:06.336Z,58.30
2022-10-02T13:40:31.535Z,52.08
2022-10-02T13:43:58.413Z,52.75
2022-10-02T13:47:33.208Z,55.88
2022-10-02T13:50:43.575Z,63.88
2022-10-02T13:54:09.603Z,50.50
2022-10-02T13:57:26.461Z,51.25
2022-10-02T14:00:51.564Z,45.53
2022-10-02T14:04:14.997Z,53.67
2022-10-02T14:07:39.094Z,40.80
2022-10-02T14:10:56.391Z,43.78
2022-10-02T14:14:17.749Z,54.70
2022-10-02T14:17:44.219Z,50.83
2022-10-02T14:21:00.697Z,47.75
2022-10-02T14:24:46.615Z,56.80
2022-10-02T14:28:09.075Z,52.58
2022-10-02T14:31:32.878Z,45.60
2022-10-02T14:35:02.348Z,42.00
2022-10-02T14:38:18.505Z,43.00
2022-10-02T14:41:38.354Z,37.50
2022-10-02T14:44:57.338Z,38.50
2022-10-02T14:48:22.429Z,42.03
2022-10-02T14:51:52.682Z,37.03
2022-10-02T14:55:17.614Z,35.85
2022-10-02T14:58:48.535Z,29.10
2022-10-02T15:02:17.237Z,37.03
2022-10-02T15:05:43.261Z,35.95
2022-10-02T15:08:49.305Z,29.20
2022-10-02T15:12:00.868Z,34.00
2022-10-02T15:15:14.335Z,32.30
2022-10-02T15:18:43.303Z,26.77
2022-10-02T15:22:01.231Z,33.13
2022-10-02T15:25:16.994Z,33.72
2022-10-02T15:28:38.198Z,29.67
2022-10-02T15:31:57.752Z,34.60
2022-10-02T15:35:23.921Z,30.23
2022-10-02T15:38:48.547Z,50.38
2022-10-02T15:42:10.068Z,37.38
2022-10-02T15:45:37.816Z,35.65
2022-10-02T15:48:55.781Z,43.40
2022-10-02T15:52:23.503Z,40.17
2022-10-02T15:55:46.252Z,54.35
2022-10-02T15:59:09.193Z,49.33
2022-10-02T16:02:34.299Z,52.22
2022-10-02T16:06:04.178Z,51.70
2022-10-02T16:09:26.967Z,49.92
2022-10-02T16:12:56.271Z,48.67
2022-10-02T16:16:01.397Z,49.42
2022-10-02T16:19:28.933Z,50.17
2022-10-02T16:22:52.029Z,41.38
2022-10-02T16:26:25.342Z,36.55
2022-10-02T16:29:42.867Z,54.78
2022-10-02T16:33:16.163Z,41.10
2022-10-02T16:36:32.284Z,40.05
2022-10-02T16:40:00.342Z,43.42
2022-10-02T16:43:30.207Z,36.45
2022-10-02T16:46:58.955Z,36.22
2022-10-02T16:50:05.632Z,36.83
2022-10-02T16:53:19.719Z,26.08
2022-10-02T16:56:32.599Z,30.73
2022-10-02T16:59:52.005Z,28.45
2022-10-02T17:03:02.995Z,35.05
2022-10-02T17:06:19.892Z,26.95
2022-10-02T17:09:27.323Z,30.48
2022-10-02T17:12:49.023Z,34.30
2022-10-02T17:16:09.881Z,25.33
2022-10-02T17:19:31.385Z,28.25
2022-10-02T17:22:43.243Z,31.02
2022-10-02T17:26:02.270Z,27.85
2022-10-02T17:29:23.261Z,26.92
2022-10-02T17:32:51.994Z,26.02
2022-10-02T17:36:06.450Z,23.65
2022-10-02T17:39:35.493Z,20.25
2022-10-02T17:42:54.879Z,34.50
2022-10-02T17:46:14.886Z,18.67
2022-10-02T17:49:38.826Z,27.15
2022-10-02T17:53:05.551Z,20.75
2022-10-02T17:56:48.911Z,28.23
2022-10-02T18:00:20.095Z,21.50
2022-10-02T18:03:40.129Z,27.02
2022-10-02T18:07:18.077Z,30.42
2022-10-02T18:10:32.189Z,23.77
2022-10-02T18:14:05.444Z,23.85
2022-10-02T18:17:27.345Z,21.13
2022-10-02T18:20:35.906Z,25.33
2022-10-02T18:24:01.065Z,28.63
2022-10-02T18:27:37.425Z,24.40
2022-10-02T18:30:58.792Z,21.73
2022-10-02T18:34:14.843Z,24.58
2022-10-02T18:37:35.328Z,18.77
2022-10-02T18:41:05.770Z,22.77
2022-10-02T18:44:27.411Z,18.27
2022-10-02T18:47:47.728Z,19.08
2022-10-02T18:51:06.939Z,19.75
2022-10-02T18:54:36.118Z,20.98
2022-10-02T18:58:04.884Z,15.07
2022-10-02T19:01:23.851Z,14.50
2022-10-02T19:04:41.008Z,20.38
2022-10-02T19:07:47.925Z,22.30
2022-10-02T19:10:48.484Z,21.45
2022-10-02T19:13:49.402Z,18.45
2022-10-02T19:17:06.292Z,14.93
2022-10-02T19:20:39.553Z,21.63
2022-10-02T19:23:53.932Z,16.58
2022-10-02T19:27:00.180Z,19.33
2022-10-02T19:30:01.923Z,20.95
2022-10-02T19:33:08.472Z,17.73
2022-10-02T19:36:07.885Z,21.85
2022-10-02T19:39:18.484Z,21.58
2022-10-02T19:42:25.181Z,15.27
2022-10-02T19:45:27.840Z,23.17
2022-10-02T19:48:28.910Z,15.75
2022-10-02T19:51:27.106Z,20.15
2022-10-02T19:54:37.912Z,15.57
2022-10-02T19:57:40.932Z,18.73
2022-10-02T20:00:39.812Z,16.55
2022-10-02T20:03:38.746Z,16.27
2022-10-02T20:06:40.899Z,24.40
2022-10-02T20:09:51.633Z,18.15
2022-10-02T20:12:56.821Z,24.58
2022-10-02T20:16:16.182Z,22.58
2022-10-02T20:19:20.385Z,18.88
2022-10-02T20:22:29.525Z,19.27
2022-10-02T20:25:35.520Z,20.15
2022-10-02T20:28:45.323Z,21.48
2022-10-02T20:31:50.666Z,23.83
2022-10-02T20:34:58.135Z,18.63
2022-10-02T20:40:58.239Z,16.60
2022-10-02T20:44:04.879Z,22.38
2022-10-02T20:47:33.908Z,17.40
2022-10-02T20:50:57.584Z,18.10
2022-10-02T20:54:16.819Z,18.83
2022-10-02T20:57:59.810Z,22.30
2022-10-02T21:01:22.255Z,12.93
2022-10-02T21:04:49.685Z,13.50
2022-10-02T21:08:14.352Z,20.98
2022-10-02T21:11:43.987Z,15.48
2022-10-02T21:15:00.571Z,16.67
2022-10-02T21:18:26.911Z,16.02
2022-10-02T21:21:53.800Z,18.92
2022-10-02T21:25:19.312Z,8.25
2022-10-02T21:28:42.252Z,10.27
2022-10-02T21:32:06.450Z,11.32
2022-10-02T21:35:17.411Z,16.83
2022-10-02T21:38:51.257Z,14.77
2022-10-02T21:42:18.063Z,17.48
2022-10-02T21:45:47.037Z,10.85
2022-10-02T21:49:15.977Z,16.92
2022-10-02T21:52:48.593Z,13.80
2022-10-02T21:56:21.766Z,12.63
2022-10-02T21:59:50.212Z,10.38
2022-10-02T22:03:23.392Z,13.43
2022-10-02T22:06:45.643Z,18.27
2022-10-02T22:09:58.409Z,15.57
2022-10-02T22:13:23.941Z,13.85
2022-10-02T22:16:45.635Z,26.38
2022-10-02T22:20:00.622Z,10.15
2022-10-02T22:23:34.122Z,15.00
2022-10-02T22:26:59.468Z,16.30
2022-10-02T22:29:58.358Z,12.57
2022-10-02T22:33:11.268Z,14.90
2022-10-02T22:36:32.558Z,14.38
2022-10-02T22:39:39.435Z,22.17
2022-10-02T22:42:43.288Z,20.00
2022-10-02T22:45:51.247Z,26.80
2022-10-02T22:49:09.954Z,26.55
2022-10-02T22:52:27.200Z,22.75
2022-10-02T22:55:30.403Z,24.87
2022-10-02T22:58:45.182Z,14.93
2022-10-02T23:02:05.549Z,21.58
2022-10-02T23:05:14.670Z,14.88
2022-10-02T23:08:43.622Z,18.25
2022-10-02T23:11:57.521Z,18.45
2022-10-02T23:15:15.452Z,14.82
2022-10-02T23:18:38.759Z,17.92
2022-10-02T23:21:55.413Z,15.63
2022-10-02T23:25:24.891Z,25.27
2022-10-02T23:28:32.604Z,26.35
2022-10-02T23:31:41.677Z,25.55
2022-10-02T23:34:57.408Z,31.15
2022-10-02T23:38:18.531Z,24.25
2022-10-02T23:41:38.311Z,24.75
2022-10-02T23:44:57.787Z,28.67
2022-10-02T23:48:00.663Z,25.42
2022-10-02T23:51:19.979Z,26.75
2022-10-02T23:54:41.257Z,21.35
2022-10-02T23:58:03.121Z,31.42
